Decoded Metar for UKDR (KRIVYY RIH in UKRAINE) (IATA:N/A) | Meteo·Mobile Aviation Weather
aviador You're here:

UKDR Decoded Metar

KRIVYY RIH in UKRAINE
Report Time2019-07-19 18:00:00
UTC Time2019-07-19 18:27:46
Flight Rules vfr VFR
WindCalm
Visibility9999 m
Phenomena:N/A
Clouds:N/A
Expected CloudBase > 4,800 ft AGL from Temp-Dew spread
CeilingNone
Temp21°C (ISA +7)
Dew Point09°C (46% RH)
AAT20.8°C
QNH1017 hPa
Density Alt1,224 ft
Elevation407 ft
Report Wrong Elevation
Raw Report
UKDR 191800Z 00000MPS CAVOK 21/09 Q1017 R36/09//70 NOSIG=

Extra information for UKDR:More info

Metar Taf Metar & Taf Last 4 Metars F.Rules Stats Wind Profile Meteogram Temp Stats Airport Information Weather charts Add Link Nearby VenuesMetar ALERT Operation Metar Decoded Social comments